White Sulphur Springs, New York
Current Conditions -  °F | °C
As of 2:55 AM on Wednesday 22 Oct 2014 (Local Time) from KMSV Reporting Station
Overcast Overcast  
Wind Chill: 48°   Ceiling: 2100
Heat Index: 48°   Visibility: 8mi
Dew Point: 48°   Wind: 3mph
Humidity: 100%   Direction: 40°NE
Pressure: 29.95"   Gusts: NA
Location:  41.8°N, 74.83°W
Report Text: KMSV 220655Z AUTO 04003KT 8SM BKN021 OVC025 09/09 A2995 RMK AO1 P0002
Loading
Personal Weather Stations






























Interactive Weather Map
Tropical Storm Tracking
New forecast layout! Learn more

10-Day Weather Forecast

Advertisements
Track Severe Weather on mobile